• Join FlightAware (Why Join?)
  • Login
  • US Flag 
Rudolph Flight #1: Arrived! 
09:54PM EST


 

Airport Tracker/Info


-or-


 

Live Flight TrackerFlight Track Log ✈ N521LL ✈ 18-Jul-2013 ✈ KLAS - KLBB

Flight Track Log - Related Links

Times and Time Zones

All times are in EDT time to prevent confusion due to time zone crossing. See the N521LL flight status page for this flight to view local times or setup timezone preferences in your user account.

Time Position Orientation Groundspeed Altitude Reporting Facility
EDT Latitude Longitude Course Direction KTS MPH feet Rate Location/Type
10:43AM 36.0764 -115.2000 230° Southwest 241 277 3,400  Level Los Angeles Center
10:44AM 36.0175 -115.2858 230° Southwest 276 318 6,800 2,460 Climbing Los Angeles Center
10:45AM 35.9283 -115.2886 181° South 283 326 10,200 2,520 Climbing Los Angeles Center
10:47AM 35.8697 -115.2058 131° Southeast 292 336 13,400 2,760 Climbing Los Angeles Center
10:48AM 35.8767 -115.0831 86° East 300 345 16,600 2,520 Climbing Los Angeles Center
10:49AM 35.8833 -114.9753 86° East 310 357 18,700 1,800 Climbing Los Angeles Center
10:50AM 35.8878 -114.8633 87° East 322 371 20,400 1,440 Climbing Los Angeles Center
10:51AM 35.8939 -114.7469 86° East 334 384 21,700 1,380 Climbing Los Angeles Center
10:52AM 35.8953 -114.6267 89° East 346 398 23,300 1,380 Climbing Los Angeles Center
10:53AM 35.9028 -114.4814 86° East 352 405 24,600 1,080 Climbing Los Angeles Center
10:54AM 35.9044 -114.3567 89° East 362 417 25,600 960 Climbing Los Angeles Center
10:55AM 35.9125 -114.2294 85° East 370 426 26,700 1,080 Climbing Los Angeles Center
10:56AM 35.9144 -114.1031 89° East 371 427 27,900 1,020 Climbing Los Angeles Center
10:57AM 35.9206 -113.9772 87° East 369 425 28,900 1,140 Climbing Los Angeles Center
10:58AM 35.9147 -113.8511 93° East 370 426 30,300 1,560 Climbing Los Angeles Center
10:59AM 35.8911 -113.7039 101° East 366 421 32,200 1,740 Climbing Los Angeles Center
11:00AM 35.8731 -113.5878 101° East 349 402 34,000 1,680 Climbing Los Angeles Center
11:01AM 35.8542 -113.4625 101° East 329 379 36,100 1,320 Climbing Los Angeles Center
11:02AM 35.8442 -113.3531 96° East 323 372 37,100 840 Climbing Los Angeles Center
11:03AM 35.8350 -113.2400 96° East 332 382 37,900 780 Climbing Los Angeles Center
11:04AM 35.8228 -113.0986 96° East 343 395 38,800 900 Climbing Los Angeles Center
11:05AM 35.8119 -112.9803 96° East 347 399 39,800 900 Climbing Los Angeles Center
11:06AM 35.8033 -112.8619 95° East 347 399 40,700 540 Climbing Los Angeles Center
11:08AM 35.7914 -112.7450 97° East 345 397 41,000 120 Climbing Los Angeles Center
11:09AM 35.7825 -112.6194 95° East 363 418 41,000  Level Los Angeles Center
11:10AM 35.7686 -112.4906 98° East 376 433 41,000  Level Los Angeles Center
11:11AM 35.7528 -112.3303 97° East 391 450 41,000  Level Los Angeles Center
11:12AM 35.7286 -112.1975 103° East 398 458 41,000  Level Los Angeles Center
11:13AM 35.7103 -112.0611 99° East 404 465 41,000  Level Los Angeles Center
11:14AM 35.6869 -111.9261 102° East 404 465 41,000  Level Los Angeles Center
11:15AM 35.6672 -111.7906 100° East 405 466 41,000  Level Los Angeles Center
11:16AM 35.6461 -111.6558 101° East 404 465 41,000  Level Los Angeles Center
11:16AM 35.6333 -111.5747 101° East 403 464 41,000  Level Albuquerque Center
11:17AM 35.6058 -111.4203 102° East 403 464 41,000  Level Albuquerque Center
11:18AM 35.5825 -111.2672 101° East 408 470 41,000  Level Albuquerque Center
11:19AM 35.5614 -111.1372 101° East 406 467 41,000  Level Albuquerque Center
11:21AM 35.5378 -110.9858 101° East 406 467 41,000  Level Albuquerque Center
11:22AM 35.5164 -110.8556 101° East 407 468 41,000  Level Albuquerque Center
11:23AM 35.4942 -110.7264 102° East 405 466 41,000  Level Albuquerque Center
11:24AM 35.4711 -110.5756 101° East 405 466 41,000  Level Albuquerque Center
11:25AM 35.4481 -110.4472 102° East 404 465 41,000  Level Albuquerque Center
11:26AM 35.4236 -110.2964 101° East 403 464 41,000  Level Albuquerque Center
11:27AM 35.4011 -110.1697 102° East 401 461 41,000  Level Albuquerque Center
11:28AM 35.3767 -110.0217 101° East 399 459 41,000  Level Albuquerque Center
11:29AM 35.3553 -109.8964 102° East 396 456 41,000  Level Albuquerque Center
11:30AM 35.3300 -109.7503 102° East 394 453 41,000  Level Albuquerque Center
11:31AM 35.3094 -109.6258 101° East 393 452 41,000  Level Albuquerque Center
11:32AM 35.2833 -109.4811 102° East 392 451 41,000  Level Albuquerque Center
11:33AM 35.2625 -109.3583 102° East 389 448 41,000  Level Albuquerque Center
11:34AM 35.2361 -109.2144 103° East 389 448 41,000  Level Albuquerque Center
11:35AM 35.2147 -109.0914 102° East 388 447 41,000  Level Albuquerque Center
11:36AM 35.1886 -108.9492 103° East 387 445 41,000  Level Albuquerque Center
11:37AM 35.1656 -108.8267 103° East 387 445 41,000  Level Albuquerque Center
11:38AM 35.1406 -108.6836 102° East 387 445 41,000  Level Albuquerque Center
11:39AM 35.1178 -108.5600 103° East 389 448 41,000  Level Albuquerque Center
11:40AM 35.0919 -108.4169 102° East 388 447 41,000  Level Albuquerque Center
11:41AM 35.0686 -108.2956 103° East 387 445 41,000  Level Albuquerque Center
11:42AM 35.0417 -108.1522 103° East 388 447 41,000  Level Albuquerque Center
11:43AM 35.0189 -108.0297 103° East 388 447 41,000  Level Albuquerque Center
11:44AM 34.9908 -107.8869 103° East 388 447 41,000  Level Albuquerque Center
11:45AM 34.9669 -107.7622 103° East 388 447 41,000  Level Albuquerque Center
11:46AM 34.9417 -107.6350 104° East 389 448 41,000  Level Albuquerque Center
11:47AM 34.9186 -107.5069 102° East 387 445 41,000  Level Albuquerque Center
11:48AM 34.8925 -107.3806 104° East 388 447 41,000  Level Albuquerque Center
11:49AM 34.8675 -107.2528 103° East 389 448 41,000  Level Albuquerque Center
11:51AM 34.8367 -107.1000 104° East 391 450 41,000  Level Albuquerque Center
11:52AM 34.8106 -106.9744 104° East 389 448 41,000  Level Albuquerque Center
11:53AM 34.7869 -106.8464 103° East 391 450 41,000  Level Albuquerque Center
11:54AM 34.7581 -106.7172 105° East 400 460 41,000  Level Albuquerque Center
11:55AM 34.7336 -106.5883 103° East 396 456 41,000  Level Albuquerque Center
11:56AM 34.7011 -106.4339 104° East 395 455 41,000  Level Albuquerque Center
11:57AM 34.6758 -106.3042 103° East 396 456 41,000  Level Albuquerque Center
11:58AM 34.6469 -106.1692 105° East 396 456 41,000  Level Albuquerque Center
11:59AM 34.6211 -106.0375 103° East 398 458 41,000  Level Albuquerque Center
12:00PM 34.5917 -105.9047 105° East 402 463 41,000  Level Albuquerque Center
12:01PM 34.5644 -105.7739 104° East 400 460 41,000  Level Albuquerque Center
12:02PM 34.5336 -105.6189 104° East 402 463 41,000  Level Albuquerque Center
12:03PM 34.5044 -105.4872 105° East 402 463 41,000  Level Albuquerque Center
12:04PM 34.4775 -105.3558 104° East 400 460 41,000  Level Albuquerque Center
12:05PM 34.4478 -105.2236 105° East 403 464 41,000  Level Albuquerque Center
12:06PM 34.4211 -105.0911 104° East 403 464 41,000  Level Albuquerque Center
12:07PM 34.3917 -104.9594 105° East 402 463 41,000  Level Albuquerque Center
12:08PM 34.3628 -104.8289 105° East 400 460 41,000  Level Albuquerque Center
12:09PM 34.3311 -104.6736 104° East 404 465 41,000  Level Albuquerque Center
12:10PM 34.3003 -104.5417 106° East 405 466 41,000  Level Albuquerque Center
12:11PM 34.2711 -104.4083 105° East 407 468 41,000  Level Albuquerque Center
12:12PM 34.2408 -104.2761 105° East 406 467 41,000  Level Albuquerque Center
12:13PM 34.2122 -104.1414 104° East 410 472 41,000 -480 Level Albuquerque Center
12:14PM 34.1817 -104.0111 106° East 407 468 40,100 -960 Descending Albuquerque Center
12:15PM 34.1536 -103.8831 105° East 398 458 39,100 -1,260 Descending Albuquerque Center
12:16PM 34.1186 -103.7281 105° East 402 463 37,600 -1,620 Descending Albuquerque Center
12:17PM 34.0906 -103.6131 106° East 413 475 35,800 -2,040 Descending Albuquerque Center
12:18PM 34.0556 -103.4500 104° East 417 480 33,400 -2,220 Descending Albuquerque Center
12:19PM 34.0231 -103.3156 106° East 418 481 31,300 -2,040 Descending Albuquerque Center
12:20PM 33.9928 -103.1825 105° East 415 478 29,300 -2,040 Descending Albuquerque Center
12:21PM 33.9600 -103.0500 107° East 414 476 27,200 -2,040 Descending Albuquerque Center
12:23PM 33.9281 -102.9181 106° East 411 473 25,100 -2,040 Descending Albuquerque Center
12:24PM 33.8978 -102.7853 105° East 412 474 23,100 -1,920 Descending Albuquerque Center
12:25PM 33.8661 -102.6533 106° East 411 473 21,200 -2,100 Descending Albuquerque Center
12:26PM 33.8556 -102.4989 95° East 398 458 18,800 -2,160 Descending Albuquerque Center
12:27PM 33.8622 -102.3708 86° East 369 425 16,900 -1,800 Descending Fort Worth Center
12:27PM 33.8664 -102.3211 84° East 372 428 16,100 -1,980 Descending Fort Worth Center
12:28PM 33.8714 -102.1914 87° East 356 410 13,900 -2,280 Descending Fort Worth Center
12:29PM 33.8739 -102.1264 87° East 342 394 12,500 -2,520 Descending Fort Worth Center
12:30PM 33.8797 -102.0242 86° East 303 349 9,900 -2,760 Descending Fort Worth Center
12:31PM 33.8894 -101.9297 83° East 271 312 6,900 -2,460 Descending Fort Worth Center
12:32PM 33.8647 -101.8633 114° Southeast 241 277 5,000 -960 Descending Fort Worth Center
12:33PM 33.8197 -101.8311 149° Southeast 173 199 5,000 -60 Level Fort Worth Center
12:34PM 33.7761 -101.8314 180° South 132 152 4,900 -360 Descending Fort Worth Center
12:35PM 33.7364 -101.8317 180° South 138 159 4,300 -600 Descending Fort Worth Center
12:36PM 33.6989 -101.8325 181° South 132 152 3,700 -600 Descending Fort Worth Center
12:38PM 33.6637 -101.8206 176° South  Level Estimated
12:45PM 33.6637 -101.8206 176° South  Level Estimated